createdAt,value
2022-08-21T00:00:44.286Z,55.26
2022-08-21T00:03:13.045Z,55.08
2022-08-21T00:05:42.892Z,55.17
2022-08-21T00:08:11.105Z,55.42
2022-08-21T00:10:39.418Z,55.21
2022-08-21T00:13:07.577Z,54.94
2022-08-21T00:15:36.638Z,55.23
2022-08-21T00:18:06.190Z,55.14
2022-08-21T00:20:34.541Z,55.15
2022-08-21T00:23:02.662Z,55.15
2022-08-21T00:25:30.750Z,55.55
2022-08-21T00:27:58.809Z,55.25
2022-08-21T00:30:27.689Z,55.07
2022-08-21T00:32:56.235Z,55.33
2022-08-21T00:35:27.919Z,55.27
2022-08-21T00:37:56.107Z,55.31
2022-08-21T00:40:28.803Z,55.54
2022-08-21T00:42:57.013Z,55.06
2022-08-21T00:45:25.753Z,55.23
2022-08-21T00:47:54.960Z,55.17
2022-08-21T00:50:23.661Z,55.41
2022-08-21T00:52:53.370Z,55.24
2022-08-21T00:55:21.803Z,55.26
2022-08-21T00:57:52.965Z,54.87
2022-08-21T01:00:32.104Z,54.89
2022-08-21T01:03:00.899Z,55.11
2022-08-21T01:05:29.062Z,55.18
2022-08-21T01:07:59.037Z,55.19
2022-08-21T01:10:27.233Z,55.33
2022-08-21T01:12:56.268Z,55.18
2022-08-21T01:15:24.562Z,55.30
2022-08-21T01:17:52.714Z,55.14
2022-08-21T01:20:20.781Z,55.11
2022-08-21T01:22:50.283Z,55.19
2022-08-21T01:25:20.649Z,55.28
2022-08-21T01:27:48.794Z,55.21
2022-08-21T01:30:18.722Z,55.13
2022-08-21T01:32:47.181Z,55.06
2022-08-21T01:35:15.790Z,55.01
2022-08-21T01:37:43.974Z,55.09
2022-08-21T01:40:14.028Z,55.18
2022-08-21T01:42:42.195Z,55.26
2022-08-21T01:45:11.186Z,55.13
2022-08-21T01:47:39.314Z,55.03
2022-08-21T01:50:08.958Z,55.26
2022-08-21T01:52:37.081Z,55.40
2022-08-21T01:55:05.510Z,55.26
2022-08-21T01:57:35.209Z,55.23
2022-08-21T02:00:03.601Z,55.13
2022-08-21T02:02:40.030Z,55.14
2022-08-21T02:05:08.568Z,55.19
2022-08-21T02:07:38.995Z,55.29
2022-08-21T02:10:08.465Z,55.25
2022-08-21T02:12:37.938Z,55.21
2022-08-21T02:15:06.926Z,55.32
2022-08-21T02:17:44.951Z,55.41
2022-08-21T02:20:13.662Z,55.25
2022-08-21T02:22:41.867Z,55.04
2022-08-21T02:25:10.356Z,55.45
2022-08-21T02:27:42.681Z,55.24
2022-08-21T02:30:12.004Z,55.44
2022-08-21T02:32:40.087Z,55.29
2022-08-21T02:35:08.748Z,55.19
2022-08-21T02:37:36.870Z,55.19
2022-08-21T02:40:05.881Z,55.42
2022-08-21T02:42:33.985Z,55.29
2022-08-21T02:45:03.534Z,55.44
2022-08-21T02:47:31.698Z,54.72
2022-08-21T02:49:59.825Z,55.08
2022-08-21T02:52:28.197Z,55.14
2022-08-21T02:54:56.421Z,55.30
2022-08-21T02:57:24.539Z,55.26
2022-08-21T02:59:52.686Z,55.69
2022-08-21T03:02:23.178Z,55.51
2022-08-21T03:04:54.854Z,55.41
2022-08-21T03:07:22.942Z,55.04
2022-08-21T03:09:55.762Z,55.22
2022-08-21T03:12:24.522Z,55.56
2022-08-21T03:14:54.693Z,55.26
2022-08-21T03:17:29.381Z,55.33
2022-08-21T03:19:58.643Z,55.28
2022-08-21T03:22:26.837Z,55.11
2022-08-21T03:24:55.514Z,55.63
2022-08-21T03:27:27.711Z,54.92
2022-08-21T03:30:01.128Z,55.51
2022-08-21T03:32:32.456Z,55.13
2022-08-21T03:35:01.360Z,55.31
2022-08-21T03:37:29.486Z,55.36
2022-08-21T03:39:57.634Z,55.09
2022-08-21T03:42:25.773Z,55.43
2022-08-21T03:44:53.833Z,55.36
2022-08-21T03:47:23.070Z,55.21
2022-08-21T03:49:52.658Z,55.31
2022-08-21T03:52:20.823Z,55.36
2022-08-21T03:54:48.918Z,55.51
2022-08-21T03:57:17.063Z,55.39
2022-08-21T03:59:45.369Z,55.35
2022-08-21T04:02:13.456Z,55.37
2022-08-21T04:04:41.533Z,55.18
2022-08-21T04:07:10.970Z,55.54
2022-08-21T04:09:39.852Z,55.13
2022-08-21T04:12:08.502Z,55.29
2022-08-21T04:14:36.651Z,55.25
2022-08-21T04:17:05.046Z,55.24
2022-08-21T04:19:33.175Z,55.17
2022-08-21T04:22:01.291Z,55.29
2022-08-21T04:24:32.170Z,54.96
2022-08-21T04:27:00.279Z,55.47
2022-08-21T04:29:28.503Z,55.16
2022-08-21T04:31:56.669Z,55.33
2022-08-21T04:34:24.745Z,55.42
2022-08-21T04:36:52.883Z,55.21
2022-08-21T04:39:21.069Z,55.61
2022-08-21T04:41:54.697Z,55.36
2022-08-21T04:44:22.929Z,55.17
2022-08-21T04:46:51.049Z,55.39
2022-08-21T04:49:19.166Z,55.43
2022-08-21T04:51:47.298Z,55.30
2022-08-21T04:54:18.170Z,55.35
2022-08-21T04:56:47.601Z,54.53
2022-08-21T04:59:19.618Z,54.12
2022-08-21T05:01:48.109Z,53.33
2022-08-21T05:04:17.756Z,53.46
2022-08-21T05:06:46.441Z,53.08
2022-08-21T05:09:14.743Z,52.97
2022-08-21T05:11:43.827Z,52.59
2022-08-21T05:14:12.304Z,52.47
2022-08-21T05:16:42.804Z,52.38
2022-08-21T05:19:10.921Z,52.42
2022-08-21T05:21:40.837Z,52.03
2022-08-21T05:24:09.026Z,51.83
2022-08-21T05:26:38.324Z,51.78
2022-08-21T05:29:14.183Z,51.35
2022-08-21T05:31:44.453Z,51.36
2022-08-21T05:34:12.609Z,51.39
2022-08-21T05:36:44.495Z,50.84
2022-08-21T05:39:12.647Z,51.14
2022-08-21T05:41:40.782Z,50.94
2022-08-21T05:44:10.500Z,50.75
2022-08-21T05:46:38.886Z,50.16
2022-08-21T05:49:08.358Z,49.64
2022-08-21T05:51:36.514Z,49.41
2022-08-21T05:54:04.806Z,49.45
2022-08-21T05:56:32.990Z,49.46
2022-08-21T05:59:01.131Z,49.35
2022-08-21T06:01:31.751Z,49.41
2022-08-21T06:03:59.987Z,49.34
2022-08-21T06:06:31.190Z,49.42
2022-08-21T06:08:59.302Z,48.95
2022-08-21T06:11:29.072Z,48.75
2022-08-21T06:13:57.359Z,48.63
2022-08-21T06:16:25.529Z,48.39
2022-08-21T06:18:53.822Z,48.22
2022-08-21T06:21:21.906Z,48.11
2022-08-21T06:23:51.494Z,47.76
2022-08-21T06:26:19.683Z,47.77
2022-08-21T06:28:47.826Z,47.48
2022-08-21T06:31:17.016Z,47.08
2022-08-21T06:33:45.138Z,47.09
2022-08-21T06:36:13.245Z,47.19
2022-08-21T06:38:41.574Z,47.38
2022-08-21T06:41:24.017Z,47.43
2022-08-21T06:43:54.539Z,47.30
2022-08-21T06:46:22.675Z,47.39
2022-08-21T06:48:50.782Z,47.41
2022-08-21T06:51:19.005Z,47.55
2022-08-21T06:53:47.157Z,47.57
2022-08-21T06:56:15.300Z,47.55
2022-08-21T06:58:44.821Z,47.31
2022-08-21T07:01:12.986Z,47.72
2022-08-21T07:03:42.397Z,47.76
2022-08-21T07:06:11.409Z,47.54
2022-08-21T07:08:39.548Z,47.43
2022-08-21T07:11:11.278Z,47.92
2022-08-21T07:13:39.629Z,48.07
2022-08-21T07:16:09.395Z,48.24
2022-08-21T07:18:37.534Z,48.23
2022-08-21T07:21:06.025Z,48.63
2022-08-21T07:23:35.093Z,48.75
2022-08-21T07:26:03.301Z,48.98
2022-08-21T07:28:32.534Z,49.13
2022-08-21T07:31:01.224Z,49.47
2022-08-21T07:33:31.741Z,49.05
2022-08-21T07:35:59.906Z,49.24
2022-08-21T07:38:28.209Z,49.30
2022-08-21T07:40:57.580Z,49.21
2022-08-21T07:43:25.708Z,49.51
2022-08-21T07:45:54.923Z,49.37
2022-08-21T07:48:23.088Z,49.93
2022-08-21T07:50:52.630Z,49.97
2022-08-21T07:53:20.700Z,50.07
2022-08-21T07:55:48.818Z,50.03
2022-08-21T07:58:16.979Z,50.19
2022-08-21T08:00:45.117Z,50.19
2022-08-21T08:03:13.299Z,50.28
2022-08-21T08:05:43.445Z,50.00
2022-08-21T08:08:13.013Z,50.22
2022-08-21T08:10:41.219Z,50.18
2022-08-21T08:13:10.589Z,50.42
2022-08-21T08:15:38.931Z,50.57
2022-08-21T08:18:07.106Z,50.58
2022-08-21T08:20:35.349Z,50.67
2022-08-21T08:23:03.619Z,50.72
2022-08-21T08:25:36.893Z,50.63
2022-08-21T08:28:17.127Z,50.61
2022-08-21T08:30:46.496Z,50.90
2022-08-21T08:33:14.649Z,50.85
2022-08-21T08:35:43.348Z,50.88
2022-08-21T08:38:11.753Z,51.14
2022-08-21T08:40:45.045Z,50.96
2022-08-21T08:43:14.632Z,51.11
2022-08-21T08:45:46.643Z,50.92
2022-08-21T08:48:16.929Z,51.07
2022-08-21T08:50:47.890Z,50.97
2022-08-21T08:53:18.006Z,51.39
2022-08-21T08:55:47.604Z,51.28
2022-08-21T08:58:19.235Z,51.15
2022-08-21T09:00:47.532Z,51.11
2022-08-21T09:03:15.747Z,51.13
2022-08-21T09:05:47.461Z,51.11
2022-08-21T09:08:35.140Z,50.95
2022-08-21T09:11:06.159Z,50.87
2022-08-21T09:13:42.198Z,51.11
2022-08-21T09:16:27.442Z,51.26
2022-08-21T09:18:59.563Z,50.96
2022-08-21T09:21:30.567Z,50.82
2022-08-21T09:24:02.261Z,50.96
2022-08-21T09:26:34.403Z,51.12
2022-08-21T09:29:02.853Z,50.84
2022-08-21T09:31:33.156Z,50.86
2022-08-21T09:34:02.069Z,50.11
2022-08-21T09:36:35.925Z,50.22
2022-08-21T09:39:04.158Z,50.17
2022-08-21T09:41:34.827Z,50.47
2022-08-21T09:44:03.049Z,50.54
2022-08-21T09:46:31.313Z,50.15
2022-08-21T09:49:00.300Z,50.43
2022-08-21T09:51:31.593Z,50.46
2022-08-21T09:54:02.882Z,50.42
2022-08-21T09:56:51.150Z,50.74
2022-08-21T09:59:22.026Z,50.40
2022-08-21T10:01:51.653Z,50.18
2022-08-21T10:04:22.913Z,50.38
2022-08-21T10:06:51.196Z,50.35
2022-08-21T10:09:21.790Z,50.71
2022-08-21T10:11:58.588Z,50.38
2022-08-21T10:14:42.311Z,50.20
2022-08-21T10:17:16.608Z,50.53
2022-08-21T10:19:47.756Z,50.50
2022-08-21T10:22:23.937Z,50.70
2022-08-21T10:24:55.570Z,50.47
2022-08-21T10:27:31.070Z,50.49
2022-08-21T10:30:01.494Z,50.49
2022-08-21T10:32:37.506Z,50.85
2022-08-21T10:35:10.883Z,50.55
2022-08-21T10:37:45.434Z,50.24
2022-08-21T10:40:17.785Z,50.27
2022-08-21T10:42:54.581Z,50.36
2022-08-21T10:45:30.138Z,50.23
2022-08-21T10:48:00.080Z,50.04
2022-08-21T10:50:33.035Z,49.63
2022-08-21T10:53:19.049Z,49.72
2022-08-21T10:55:50.743Z,49.59
2022-08-21T10:58:25.457Z,49.83
2022-08-21T11:00:55.379Z,49.50
2022-08-21T11:03:26.412Z,49.50
2022-08-21T11:05:55.785Z,49.13
2022-08-21T11:08:25.709Z,49.64
2022-08-21T11:10:58.000Z,49.43
2022-08-21T11:13:31.946Z,49.53
2022-08-21T11:16:04.071Z,49.34
2022-08-21T11:18:34.217Z,49.03
2022-08-21T11:21:08.367Z,49.48
2022-08-21T11:23:41.209Z,49.07
2022-08-21T11:26:11.114Z,49.09
2022-08-21T11:28:43.395Z,48.40
2022-08-21T11:31:18.835Z,48.46
2022-08-21T11:33:54.903Z,48.36
2022-08-21T11:36:35.347Z,48.02
2022-08-21T11:39:09.131Z,48.28
2022-08-21T11:41:40.093Z,47.76
2022-08-21T11:44:14.021Z,47.86
2022-08-21T11:46:45.919Z,47.84
2022-08-21T11:49:27.422Z,48.35
2022-08-21T11:52:06.803Z,48.25
2022-08-21T11:54:36.902Z,47.73
2022-08-21T11:57:07.602Z,47.84
2022-08-21T11:59:40.859Z,47.93
2022-08-21T12:02:11.505Z,47.87
2022-08-21T12:04:47.106Z,47.84
2022-08-21T12:07:16.415Z,47.38
2022-08-21T12:09:54.228Z,47.30
2022-08-21T12:12:26.778Z,46.75
2022-08-21T12:15:16.821Z,46.82
2022-08-21T12:17:54.950Z,46.99
2022-08-21T12:20:39.971Z,47.06
2022-08-21T12:23:21.402Z,47.03
2022-08-21T12:26:01.693Z,47.25
2022-08-21T12:28:30.177Z,47.02
2022-08-21T12:30:59.768Z,47.16
2022-08-21T12:33:29.660Z,47.47
2022-08-21T12:36:04.894Z,47.37
2022-08-21T12:38:35.821Z,47.21
2022-08-21T12:41:06.735Z,47.60
2022-08-21T12:43:36.922Z,47.47
2022-08-21T12:46:06.817Z,47.35
2022-08-21T12:48:37.454Z,47.56
2022-08-21T12:51:09.726Z,47.86
2022-08-21T12:53:41.218Z,47.56
2022-08-21T12:56:11.638Z,48.22
2022-08-21T12:58:42.055Z,48.19
2022-08-21T13:01:22.213Z,48.12
2022-08-21T13:04:04.108Z,48.16
2022-08-21T13:06:35.418Z,48.46
2022-08-21T13:09:07.216Z,48.67
2022-08-21T13:11:35.561Z,48.50
2022-08-21T13:14:04.731Z,48.56
2022-08-21T13:16:36.170Z,48.38
2022-08-21T13:19:06.445Z,48.19
2022-08-21T13:21:35.856Z,48.84
2022-08-21T13:24:40.780Z,48.80
2022-08-21T13:27:05.257Z,48.28
2022-08-21T13:29:38.482Z,48.18
2022-08-21T13:32:19.084Z,47.70
2022-08-21T13:34:47.226Z,47.79
2022-08-21T13:37:22.130Z,47.18
2022-08-21T13:39:52.165Z,47.24
2022-08-21T13:42:20.393Z,47.27
2022-08-21T13:44:49.105Z,46.98
2022-08-21T13:47:18.630Z,46.69
2022-08-21T13:49:48.752Z,46.99
2022-08-21T13:52:18.097Z,46.87
2022-08-21T13:54:46.679Z,46.68
2022-08-21T13:57:21.382Z,46.72
2022-08-21T13:59:50.037Z,46.54
2022-08-21T14:02:22.193Z,46.50
2022-08-21T14:04:53.825Z,46.44
2022-08-21T14:07:23.050Z,46.96
2022-08-21T14:09:51.122Z,46.88
2022-08-21T14:12:23.330Z,46.58
2022-08-21T14:14:51.844Z,46.94
2022-08-21T14:17:33.485Z,47.05
2022-08-21T14:20:02.076Z,46.99
2022-08-21T14:22:33.599Z,47.12
2022-08-21T14:25:03.378Z,47.06
2022-08-21T14:27:31.922Z,47.30
2022-08-21T14:30:01.102Z,47.20
2022-08-21T14:32:32.864Z,47.22
2022-08-21T14:35:01.079Z,47.63
2022-08-21T14:37:29.274Z,47.22
2022-08-21T14:39:57.436Z,47.58
2022-08-21T14:42:25.968Z,47.43
2022-08-21T14:44:54.080Z,47.71
2022-08-21T14:47:22.318Z,47.66
2022-08-21T14:49:54.928Z,47.80
2022-08-21T14:52:23.923Z,47.66
2022-08-21T14:54:52.514Z,47.92
2022-08-21T14:57:20.623Z,47.56
2022-08-21T14:59:49.274Z,47.53
2022-08-21T15:02:17.608Z,47.32
2022-08-21T15:04:46.178Z,47.35
2022-08-21T15:07:15.840Z,46.97
2022-08-21T15:09:44.472Z,47.03
2022-08-21T15:12:15.122Z,46.90
2022-08-21T15:14:43.674Z,46.89
2022-08-21T15:17:13.119Z,46.75
2022-08-21T15:19:42.361Z,46.78
2022-08-21T15:22:15.334Z,47.08
2022-08-21T15:24:49.042Z,46.61
2022-08-21T15:27:18.091Z,47.00
2022-08-21T15:29:46.423Z,46.70
2022-08-21T15:32:20.695Z,46.80
2022-08-21T15:34:49.118Z,46.64
2022-08-21T15:37:17.468Z,46.50
2022-08-21T15:39:51.115Z,46.62
2022-08-21T15:42:23.786Z,46.52
2022-08-21T15:44:52.309Z,46.48
2022-08-21T15:47:24.027Z,46.24
2022-08-21T15:49:52.309Z,46.52
2022-08-21T15:52:21.960Z,46.10
2022-08-21T15:54:50.349Z,46.34
2022-08-21T15:57:21.183Z,45.56
2022-08-21T15:59:51.889Z,45.90
2022-08-21T16:02:21.847Z,46.02
2022-08-21T16:04:50.445Z,45.89
2022-08-21T16:07:19.135Z,46.09
2022-08-21T16:09:47.741Z,45.87
2022-08-21T16:12:19.642Z,45.99
2022-08-21T16:14:47.995Z,45.75
2022-08-21T16:17:17.761Z,45.57
2022-08-21T16:19:46.530Z,45.66
2022-08-21T16:22:15.027Z,45.49
2022-08-21T16:24:43.177Z,45.33
2022-08-21T16:27:11.594Z,45.06
2022-08-21T16:29:39.998Z,45.04
2022-08-21T16:32:09.194Z,45.18
2022-08-21T16:34:38.897Z,45.01
2022-08-21T16:37:08.109Z,44.94
2022-08-21T16:39:37.122Z,44.86
2022-08-21T16:42:06.911Z,44.91
2022-08-21T16:44:35.698Z,44.96
2022-08-21T16:47:06.264Z,45.21
2022-08-21T16:49:34.537Z,45.34
2022-08-21T16:52:05.441Z,45.39
2022-08-21T16:54:34.273Z,45.61
2022-08-21T16:57:02.760Z,45.82
2022-08-21T16:59:31.739Z,45.77
2022-08-21T17:02:00.177Z,45.23
2022-08-21T17:04:28.956Z,44.90
2022-08-21T17:06:57.268Z,45.04
2022-08-21T17:09:27.165Z,44.79
2022-08-21T17:11:55.651Z,44.75
2022-08-21T17:14:24.729Z,44.74
2022-08-21T17:16:54.450Z,44.65
2022-08-21T17:19:22.975Z,44.64
2022-08-21T17:21:51.228Z,44.79
2022-08-21T17:24:19.499Z,44.78
2022-08-21T17:26:49.208Z,44.68
2022-08-21T17:29:26.956Z,44.96
2022-08-21T17:31:55.470Z,44.80
2022-08-21T17:34:23.631Z,44.79
2022-08-21T17:36:59.443Z,44.90
2022-08-21T17:39:27.952Z,45.28
2022-08-21T17:41:58.360Z,45.16
2022-08-21T17:44:27.173Z,45.13
2022-08-21T17:46:55.345Z,45.15
2022-08-21T17:49:23.687Z,45.24
2022-08-21T17:51:52.363Z,45.29
2022-08-21T17:54:20.555Z,45.08
2022-08-21T17:56:48.772Z,45.39
2022-08-21T17:59:18.362Z,45.08
2022-08-21T18:01:47.353Z,44.97
2022-08-21T18:04:15.895Z,45.13
2022-08-21T18:06:44.379Z,45.00
2022-08-21T18:09:12.822Z,45.12
2022-08-21T18:11:41.891Z,45.10
2022-08-21T18:14:09.987Z,45.23
2022-08-21T18:16:39.487Z,44.97
2022-08-21T18:19:10.227Z,45.05
2022-08-21T18:21:38.775Z,45.30
2022-08-21T18:24:08.016Z,45.21
2022-08-21T18:26:37.622Z,45.25
2022-08-21T18:29:07.474Z,45.37
2022-08-21T18:31:36.354Z,45.68
2022-08-21T18:34:10.806Z,45.76
2022-08-21T18:36:39.264Z,45.97
2022-08-21T18:39:34.471Z,45.99
2022-08-21T18:41:55.418Z,45.92
2022-08-21T18:44:24.757Z,45.87
2022-08-21T18:46:54.018Z,45.88
2022-08-21T18:49:23.843Z,46.12
2022-08-21T18:51:52.577Z,46.16
2022-08-21T18:54:20.739Z,46.25
2022-08-21T18:56:51.340Z,46.22
2022-08-21T18:59:22.539Z,46.64
2022-08-21T19:01:50.809Z,46.56
2022-08-21T19:07:08.533Z,46.71
2022-08-21T19:09:37.033Z,46.64
2022-08-21T19:12:06.218Z,47.00
2022-08-21T19:14:34.674Z,47.10
2022-08-21T19:17:05.542Z,47.07
2022-08-21T19:19:34.327Z,47.23
2022-08-21T19:22:03.215Z,47.35
2022-08-21T19:24:32.754Z,47.27
2022-08-21T19:27:00.914Z,47.39
2022-08-21T19:29:35.220Z,47.65
2022-08-21T19:32:18.479Z,47.34
2022-08-21T19:34:46.595Z,47.61
2022-08-21T19:37:16.317Z,47.64
2022-08-21T19:39:50.263Z,47.91
2022-08-21T19:42:21.612Z,48.00
2022-08-21T19:44:53.011Z,47.73
2022-08-21T19:47:29.428Z,47.99
2022-08-21T19:49:58.747Z,47.96
2022-08-21T19:52:26.930Z,48.19
2022-08-21T19:54:56.494Z,48.08
2022-08-21T19:57:24.588Z,48.02
2022-08-21T19:59:52.771Z,48.30
2022-08-21T20:02:20.919Z,48.27
2022-08-21T20:04:53.841Z,48.27
2022-08-21T20:07:26.781Z,48.31
2022-08-21T20:09:56.948Z,48.50
2022-08-21T20:12:25.206Z,48.25
2022-08-21T20:14:53.346Z,48.72
2022-08-21T20:17:21.627Z,48.66
2022-08-21T20:19:54.395Z,48.77
2022-08-21T20:22:24.104Z,48.81
2022-08-21T20:24:52.387Z,48.71
2022-08-21T20:27:24.426Z,48.75
2022-08-21T20:29:52.608Z,48.88
2022-08-21T20:32:22.506Z,48.82
2022-08-21T20:34:51.874Z,48.90
2022-08-21T20:37:22.150Z,49.10
2022-08-21T20:40:10.263Z,48.92
2022-08-21T20:42:40.570Z,49.09
2022-08-21T20:45:09.942Z,49.02
2022-08-21T20:47:38.566Z,48.91
2022-08-21T20:50:13.054Z,49.37
2022-08-21T20:52:42.270Z,49.25
2022-08-21T20:55:12.142Z,49.02
2022-08-21T20:57:44.753Z,49.26
2022-08-21T21:00:14.873Z,49.50
2022-08-21T21:02:47.033Z,49.40
2022-08-21T21:05:17.649Z,49.22
2022-08-21T21:07:55.966Z,49.24
2022-08-21T21:10:29.412Z,49.26
2022-08-21T21:13:02.813Z,49.11
2022-08-21T21:15:32.756Z,49.30
2022-08-21T21:18:04.173Z,49.56
2022-08-21T21:20:36.095Z,49.53
2022-08-21T21:23:17.418Z,49.38
2022-08-21T21:25:53.864Z,49.32
2022-08-21T21:28:27.705Z,49.60
2022-08-21T21:30:57.993Z,49.53
2022-08-21T21:33:26.175Z,49.54
2022-08-21T21:36:03.835Z,49.57
2022-08-21T21:38:35.386Z,49.53
2022-08-21T21:41:10.234Z,49.61
2022-08-21T21:43:53.915Z,49.54
2022-08-21T21:46:28.208Z,49.36
2022-08-21T21:52:01.801Z,49.55
2022-08-21T21:54:46.691Z,49.51
2022-08-21T21:57:35.841Z,49.37
2022-08-21T22:00:09.973Z,49.80
2022-08-21T22:02:44.312Z,49.91
2022-08-21T22:05:15.698Z,49.88
2022-08-21T22:07:48.099Z,49.70
2022-08-21T22:10:30.668Z,49.53
2022-08-21T22:13:10.002Z,49.47
2022-08-21T22:15:41.405Z,49.43
2022-08-21T22:18:11.751Z,49.65
2022-08-21T22:20:41.762Z,49.84
2022-08-21T22:23:15.920Z,49.44
2022-08-21T22:25:46.183Z,50.05
2022-08-21T22:28:17.930Z,49.79
2022-08-21T22:30:57.266Z,49.49
2022-08-21T22:33:26.450Z,49.81
2022-08-21T22:35:57.019Z,49.86
2022-08-21T22:38:31.706Z,49.64
2022-08-21T22:41:12.437Z,49.29
2022-08-21T22:43:53.333Z,49.50
2022-08-21T22:46:29.380Z,49.74
2022-08-21T22:49:01.841Z,49.76
2022-08-21T22:51:33.328Z,49.80
2022-08-21T22:54:02.526Z,49.58
2022-08-21T22:56:32.958Z,49.63
2022-08-21T22:59:03.349Z,49.84
2022-08-21T23:01:40.250Z,49.60
2022-08-21T23:04:19.013Z,49.71
2022-08-21T23:06:51.961Z,49.72
2022-08-21T23:09:22.082Z,50.02
2022-08-21T23:11:51.542Z,49.77
2022-08-21T23:14:19.761Z,49.73
2022-08-21T23:16:54.108Z,49.22
2022-08-21T23:19:38.506Z,49.89
2022-08-21T23:22:14.048Z,49.40
2022-08-21T23:24:56.799Z,49.79
2022-08-21T23:27:35.834Z,49.63
2022-08-21T23:30:07.357Z,49.98
2022-08-21T23:33:09.203Z,49.93
2022-08-21T23:36:00.309Z,49.83
2022-08-21T23:38:35.832Z,49.88
2022-08-21T23:41:11.227Z,49.77
2022-08-21T23:43:44.955Z,49.78
2022-08-21T23:46:34.178Z,50.30
2022-08-21T23:49:11.218Z,49.70
2022-08-21T23:51:43.061Z,49.92
2022-08-21T23:54:17.279Z,49.81
2022-08-21T23:56:53.887Z,49.80
2022-08-21T23:59:32.082Z,50.18
